createdAt,value
2019-04-20T00:01:50.517Z,3.47
2019-04-20T00:04:27.169Z,3.63
2019-04-20T00:06:56.442Z,3.42
2019-04-20T00:09:32.723Z,3.77
2019-04-20T00:12:10.831Z,3.83
2019-04-20T00:14:40.523Z,3.83
2019-04-20T00:17:11.685Z,3.70
2019-04-20T00:19:48.644Z,3.97
2019-04-20T00:22:24.648Z,3.40
2019-04-20T00:25:08.941Z,3.47
2019-04-20T00:28:15.313Z,3.33
2019-04-20T00:30:49.394Z,3.60
2019-04-20T00:33:09.581Z,3.40
2019-04-20T00:35:33.979Z,3.40
2019-04-20T00:38:05.765Z,3.97
2019-04-20T00:40:37.427Z,3.50
2019-04-20T00:43:13.235Z,3.47
2019-04-20T00:45:48.192Z,3.50
2019-04-20T00:48:22.642Z,3.40
2019-04-20T00:51:10.797Z,3.27
2019-04-20T00:53:31.176Z,3.40
2019-04-20T00:55:55.048Z,3.23
2019-04-20T00:58:31.549Z,3.70
2019-04-20T01:01:19.884Z,3.70
2019-04-20T01:03:46.393Z,3.43
2019-04-20T01:06:34.183Z,3.67
2019-04-20T01:08:57.091Z,3.60
2019-04-20T01:11:33.925Z,3.80
2019-04-20T01:14:07.190Z,4.00
2019-04-20T01:16:45.221Z,3.90
2019-04-20T01:19:08.998Z,4.27
2019-04-20T01:21:44.967Z,3.73
2019-04-20T01:24:20.037Z,3.50
2019-04-20T01:26:50.640Z,3.80
2019-04-20T01:29:27.957Z,3.80
2019-04-20T01:32:05.965Z,3.90
2019-04-20T01:34:38.926Z,3.85
2019-04-20T01:37:16.922Z,3.90
2019-04-20T01:39:37.089Z,3.58
2019-04-20T01:42:06.512Z,3.40
2019-04-20T01:44:42.564Z,3.60
2019-04-20T01:47:13.306Z,3.43
2019-04-20T01:49:47.723Z,3.47
2019-04-20T01:52:27.075Z,3.60
2019-04-20T01:55:33.243Z,3.80
2019-04-20T01:58:22.424Z,3.50
2019-04-20T02:01:00.804Z,3.27
2019-04-20T02:03:48.170Z,3.70
2019-04-20T02:06:20.226Z,3.50
2019-04-20T02:08:57.301Z,3.07
2019-04-20T02:11:30.937Z,3.70
2019-04-20T02:14:02.403Z,3.80
2019-04-20T02:16:37.235Z,3.47
2019-04-20T02:19:18.685Z,3.40
2019-04-20T02:21:51.980Z,3.30
2019-04-20T02:24:12.335Z,3.00
2019-04-20T02:26:43.104Z,3.30
2019-04-20T02:29:40.695Z,3.73
2019-04-20T02:32:22.468Z,3.40
2019-04-20T02:34:59.766Z,3.50
2019-04-20T02:40:15.932Z,3.37
2019-04-20T02:42:51.060Z,3.60
2019-04-20T02:50:34.387Z,3.67
2019-04-20T02:53:05.175Z,3.20
2019-04-20T02:55:37.872Z,3.35
2019-04-20T03:00:33.878Z,3.20
2019-04-20T03:02:58.744Z,3.17
2019-04-20T03:05:30.773Z,3.20
2019-04-20T03:08:08.988Z,3.13
2019-04-20T03:10:56.727Z,3.23
2019-04-20T03:13:18.805Z,2.87
2019-04-20T03:15:51.987Z,3.27
2019-04-20T03:18:29.146Z,3.27
2019-04-20T03:21:00.949Z,3.20
2019-04-20T03:23:36.170Z,3.10
2019-04-20T03:26:19.321Z,3.20
2019-04-20T03:29:07.843Z,2.92
2019-04-20T03:37:07.354Z,3.10
2019-04-20T03:39:33.043Z,3.47
2019-04-20T03:41:52.019Z,3.10
2019-04-20T03:44:25.548Z,2.83
2019-04-20T03:46:59.751Z,2.93
2019-04-20T03:49:55.048Z,3.13
2019-04-20T03:52:37.729Z,4.00
2019-04-20T03:55:26.597Z,3.40
2019-04-20T03:58:21.996Z,3.17
2019-04-20T04:00:54.480Z,2.90
2019-04-20T04:03:49.897Z,2.90
2019-04-20T04:06:11.776Z,3.67
2019-04-20T04:08:36.358Z,3.30
2019-04-20T04:11:21.865Z,3.07
2019-04-20T04:13:37.480Z,2.90
2019-04-20T04:16:13.177Z,3.40
2019-04-20T04:18:46.024Z,3.00
2019-04-20T04:21:21.972Z,3.13
2019-04-20T04:24:02.412Z,3.15
2019-04-20T04:26:34.163Z,2.90
2019-04-20T04:29:22.733Z,3.17
2019-04-20T04:31:53.511Z,2.73
2019-04-20T04:34:17.318Z,3.03
2019-04-20T04:36:53.723Z,2.87
2019-04-20T04:39:31.175Z,2.83
2019-04-20T04:42:11.577Z,3.13
2019-04-20T04:44:26.579Z,2.87
2019-04-20T04:46:54.120Z,2.95
2019-04-20T04:49:29.357Z,2.83
2019-04-20T04:52:01.113Z,3.00
2019-04-20T04:54:37.662Z,2.70
2019-04-20T04:56:58.958Z,3.30
2019-04-20T04:59:30.237Z,2.70
2019-04-20T05:02:02.124Z,3.02
2019-04-20T05:05:10.140Z,2.87
2019-04-20T05:07:38.840Z,2.60
2019-04-20T05:10:01.225Z,2.70
2019-04-20T05:12:35.281Z,2.67
2019-04-20T05:15:14.402Z,2.80
2019-04-20T05:18:01.997Z,3.10
2019-04-20T05:20:38.699Z,2.83
2019-04-20T05:23:28.275Z,2.77
2019-04-20T05:26:42.690Z,2.50
2019-04-20T05:29:03.444Z,2.57
2019-04-20T05:31:34.045Z,2.53
2019-04-20T05:34:26.261Z,2.60
2019-04-20T05:36:56.791Z,2.80
2019-04-20T05:39:35.128Z,2.70
2019-04-20T05:42:07.786Z,2.90
2019-04-20T05:44:41.337Z,2.97
2019-04-20T05:47:19.933Z,2.80
2019-04-20T05:49:48.419Z,3.50
2019-04-20T05:54:58.013Z,2.60
2019-04-20T05:57:30.307Z,2.60
2019-04-20T06:00:13.634Z,2.73
2019-04-20T06:02:32.117Z,2.90
2019-04-20T06:05:08.477Z,2.77
2019-04-20T06:07:42.151Z,3.03
2019-04-20T06:10:14.104Z,2.80
2019-04-20T06:12:46.076Z,2.67
2019-04-20T06:15:47.707Z,3.07
2019-04-20T06:18:24.146Z,2.60
2019-04-20T06:21:17.258Z,2.90
2019-04-20T06:23:50.901Z,4.13
2019-04-20T06:28:51.911Z,3.20
2019-04-20T06:31:30.138Z,2.60
2019-04-20T06:37:12.082Z,3.08
2019-04-20T06:39:40.337Z,2.83
2019-04-20T06:44:41.466Z,3.20
2019-04-20T06:47:16.378Z,4.07
2019-04-20T06:49:51.354Z,3.00
2019-04-20T06:52:34.143Z,2.90
2019-04-20T06:55:08.743Z,2.93
2019-04-20T06:58:07.575Z,3.13
2019-04-20T07:02:56.349Z,3.03
2019-04-20T07:05:28.662Z,2.80
2019-04-20T07:08:33.384Z,3.20
2019-04-20T07:10:39.419Z,2.67
2019-04-20T07:13:02.666Z,3.10
2019-04-20T07:15:41.523Z,3.00
2019-04-20T07:18:17.195Z,2.70
2019-04-20T07:21:16.418Z,3.13
2019-04-20T07:23:33.946Z,3.20
2019-04-20T07:26:13.860Z,2.87
2019-04-20T07:28:41.072Z,2.52
2019-04-20T07:31:09.939Z,2.80
2019-04-20T07:33:46.439Z,2.60
2019-04-20T07:36:22.599Z,2.87
2019-04-20T07:38:55.284Z,2.90
2019-04-20T07:41:32.958Z,3.10
2019-04-20T07:44:05.407Z,2.60
2019-04-20T07:46:42.452Z,2.80
2019-04-20T07:49:07.330Z,3.00
2019-04-20T07:51:23.154Z,3.10
2019-04-20T07:54:16.724Z,2.97
2019-04-20T07:56:42.238Z,3.37
2019-04-20T07:59:09.594Z,3.30
2019-04-20T08:02:08.272Z,3.37
2019-04-20T08:04:34.094Z,3.63
2019-04-20T08:06:57.951Z,3.17
2019-04-20T08:09:32.823Z,3.43
2019-04-20T08:12:29.323Z,3.03
2019-04-20T08:14:58.163Z,3.17
2019-04-20T08:17:30.322Z,3.47
2019-04-20T08:20:01.502Z,3.50
2019-04-20T08:22:34.116Z,3.27
2019-04-20T08:25:00.313Z,3.23
2019-04-20T08:27:23.379Z,3.52
2019-04-20T08:30:21.606Z,3.00
2019-04-20T08:32:54.219Z,3.20
2019-04-20T08:35:39.266Z,3.10
2019-04-20T08:38:38.283Z,2.80
2019-04-20T08:40:43.688Z,3.30
2019-04-20T08:43:32.702Z,3.50
2019-04-20T08:46:00.288Z,3.00
2019-04-20T08:48:27.498Z,2.70
2019-04-20T08:50:57.252Z,2.80
2019-04-20T08:53:33.513Z,2.70
2019-04-20T08:55:55.372Z,2.50
2019-04-20T08:58:18.098Z,2.40
2019-04-20T09:00:55.351Z,2.50
2019-04-20T09:03:29.088Z,2.05
2019-04-20T09:06:06.771Z,2.20
2019-04-20T09:08:44.329Z,2.17
2019-04-20T09:11:19.443Z,1.80
2019-04-20T09:13:46.254Z,1.90
2019-04-20T09:16:13.152Z,1.87
2019-04-20T09:18:52.431Z,2.00
2019-04-20T09:21:28.794Z,2.30
2019-04-20T09:24:14.584Z,2.40
2019-04-20T09:26:43.341Z,2.22
2019-04-20T09:29:12.698Z,2.23
2019-04-20T09:31:54.135Z,7.63
2019-04-20T09:34:41.903Z,2.60
2019-04-20T09:37:41.329Z,2.30
2019-04-20T09:40:15.543Z,2.40
2019-04-20T09:42:31.915Z,2.50
2019-04-20T09:45:05.830Z,2.45
2019-04-20T09:47:43.601Z,2.97
2019-04-20T09:50:29.213Z,2.73
2019-04-20T09:53:04.083Z,2.37
2019-04-20T09:55:38.281Z,2.80
2019-04-20T09:58:15.533Z,2.90
2019-04-20T10:01:08.492Z,2.70
2019-04-20T10:03:24.828Z,2.83
2019-04-20T10:05:56.318Z,2.60
2019-04-20T10:08:29.339Z,2.72
2019-04-20T10:11:01.526Z,2.83
2019-04-20T10:13:34.253Z,3.02
2019-04-20T10:16:06.206Z,2.67
2019-04-20T10:18:42.492Z,2.70
2019-04-20T10:21:11.981Z,2.92
2019-04-20T10:23:44.803Z,2.90
2019-04-20T10:26:18.560Z,3.52
2019-04-20T10:28:50.334Z,3.50
2019-04-20T10:31:22.798Z,4.00
2019-04-20T10:33:55.559Z,3.46
2019-04-20T10:36:39.342Z,3.65
2019-04-20T10:39:12.875Z,3.62
2019-04-20T10:41:51.279Z,3.80
2019-04-20T10:44:23.551Z,3.22
2019-04-20T10:46:55.151Z,3.00
2019-04-20T10:49:29.112Z,3.57
2019-04-20T10:52:01.947Z,3.40
2019-04-20T10:54:34.389Z,3.77
2019-04-20T10:57:05.912Z,3.73
2019-04-20T10:59:37.349Z,3.53
2019-04-20T11:02:09.901Z,3.50
2019-04-20T11:04:41.658Z,3.43
2019-04-20T11:07:12.964Z,2.72
2019-04-20T11:09:47.136Z,3.22
2019-04-20T11:12:20.015Z,3.20
2019-04-20T11:14:54.501Z,3.25
2019-04-20T11:17:29.721Z,3.65
2019-04-20T11:20:01.320Z,2.55
2019-04-20T11:22:32.980Z,2.87
2019-04-20T11:25:06.153Z,2.85
2019-04-20T11:27:38.346Z,3.20
2019-04-20T11:30:12.059Z,2.80
2019-04-20T11:32:44.374Z,2.93
2019-04-20T11:35:23.805Z,3.50
2019-04-20T11:37:51.246Z,2.67
2019-04-20T11:40:23.283Z,2.95
2019-04-20T11:42:55.410Z,2.77
2019-04-20T11:45:27.065Z,2.70
2019-04-20T11:47:59.366Z,2.40
2019-04-20T11:50:31.600Z,2.65
2019-04-20T11:53:03.486Z,2.80
2019-04-20T11:55:37.986Z,2.80
2019-04-20T11:58:10.334Z,2.60
2019-04-20T12:00:56.250Z,2.70
2019-04-20T12:03:35.352Z,2.75
2019-04-20T12:06:02.757Z,2.90
2019-04-20T12:08:36.979Z,2.50
2019-04-20T12:11:24.230Z,2.50
2019-04-20T12:13:40.600Z,2.47
2019-04-20T12:16:11.975Z,2.33
2019-04-20T12:18:44.328Z,2.73
2019-04-20T12:21:16.838Z,2.50
2019-04-20T12:23:48.686Z,2.62
2019-04-20T12:26:20.631Z,3.17
2019-04-20T12:28:53.705Z,2.33
2019-04-20T12:31:27.595Z,2.42
2019-04-20T12:33:58.263Z,2.40
2019-04-20T12:36:30.325Z,3.58
2019-04-20T12:39:01.592Z,2.92
2019-04-20T12:41:41.518Z,2.47
2019-04-20T12:44:07.902Z,2.30
2019-04-20T12:46:39.302Z,2.45
2019-04-20T12:49:11.644Z,2.40
2019-04-20T12:51:50.671Z,2.33
2019-04-20T12:54:20.637Z,2.40
2019-04-20T12:56:52.962Z,2.37
2019-04-20T12:59:25.557Z,2.08
2019-04-20T13:01:57.530Z,2.22
2019-04-20T13:04:30.155Z,2.30
2019-04-20T13:07:03.711Z,2.02
2019-04-20T13:09:46.379Z,2.08
2019-04-20T13:12:42.573Z,1.90
2019-04-20T13:15:49.820Z,1.90
2019-04-20T13:18:25.496Z,2.50
2019-04-20T13:20:58.808Z,2.15
2019-04-20T13:23:31.070Z,1.70
2019-04-20T13:26:05.757Z,2.08
2019-04-20T13:28:37.106Z,2.02
2019-04-20T13:31:08.675Z,2.10
2019-04-20T13:33:41.210Z,1.80
2019-04-20T13:36:14.477Z,1.60
2019-04-20T13:38:46.203Z,2.13
2019-04-20T13:41:17.944Z,1.93
2019-04-20T13:43:50.266Z,1.87
2019-04-20T13:46:22.802Z,1.65
2019-04-20T13:48:55.185Z,1.92
2019-04-20T13:51:26.665Z,2.00
2019-04-20T13:53:59.443Z,1.80
2019-04-20T13:56:32.228Z,3.02
2019-04-20T13:59:14.108Z,2.47
2019-04-20T14:02:00.056Z,2.20
2019-04-20T14:04:37.226Z,2.00
2019-04-20T14:07:10.849Z,1.80
2019-04-20T14:09:43.565Z,1.95
2019-04-20T14:12:23.268Z,1.77
2019-04-20T14:14:48.926Z,1.60
2019-04-20T14:17:21.238Z,1.50
2019-04-20T14:19:53.070Z,1.83
2019-04-20T14:22:24.951Z,1.80
2019-04-20T14:24:57.308Z,1.50
2019-04-20T14:27:28.913Z,1.30
2019-04-20T14:30:01.361Z,2.10
2019-04-20T14:32:32.869Z,1.70
2019-04-20T14:35:04.970Z,1.80
2019-04-20T14:37:36.304Z,1.83
2019-04-20T14:40:08.372Z,2.35
2019-04-20T14:42:46.291Z,1.72
2019-04-20T14:45:14.445Z,1.70
2019-04-20T14:47:45.922Z,2.00
2019-04-20T14:50:20.065Z,1.53
2019-04-20T14:52:55.658Z,1.57
2019-04-20T14:55:29.152Z,1.62
2019-04-20T14:58:05.772Z,1.80
2019-04-20T15:00:52.770Z,1.53
2019-04-20T15:03:34.084Z,1.40
2019-04-20T15:06:07.477Z,1.55
2019-04-20T15:08:39.191Z,1.70
2019-04-20T15:11:10.786Z,1.60
2019-04-20T15:13:42.572Z,1.60
2019-04-20T15:16:15.061Z,1.73
2019-04-20T15:18:51.867Z,1.80
2019-04-20T15:21:24.248Z,1.60
2019-04-20T15:23:55.622Z,1.40
2019-04-20T15:26:26.906Z,1.50
2019-04-20T15:28:58.226Z,1.57
2019-04-20T15:31:30.112Z,1.70
2019-04-20T15:34:01.723Z,1.40
2019-04-20T15:36:34.086Z,1.47
2019-04-20T15:39:07.444Z,1.60
2019-04-20T15:41:39.082Z,1.40
2019-04-20T15:44:11.206Z,1.70
2019-04-20T15:46:43.605Z,1.60
2019-04-20T15:49:15.869Z,1.60
2019-04-20T15:51:47.870Z,2.20
2019-04-20T15:54:19.758Z,3.03
2019-04-20T15:56:56.954Z,1.97
2019-04-20T15:59:24.387Z,1.87
2019-04-20T16:02:00.637Z,1.77
2019-04-20T16:04:56.493Z,2.08
2019-04-20T16:07:32.912Z,2.42
2019-04-20T16:10:01.223Z,2.20
2019-04-20T16:12:33.081Z,2.20
2019-04-20T16:15:04.739Z,2.10
2019-04-20T16:17:39.194Z,1.98
2019-04-20T16:20:14.795Z,3.40
2019-04-20T16:22:44.756Z,3.00
2019-04-20T16:25:31.924Z,2.30
2019-04-20T16:28:03.753Z,2.30
2019-04-20T16:30:35.878Z,2.00
2019-04-20T16:33:08.373Z,2.20
2019-04-20T16:35:40.569Z,2.73
2019-04-20T16:38:11.915Z,2.17
2019-04-20T16:40:44.351Z,2.00
2019-04-20T16:43:24.498Z,1.80
2019-04-20T16:45:48.745Z,1.67
2019-04-20T16:48:20.030Z,2.00
2019-04-20T16:50:51.302Z,1.87
2019-04-20T16:53:22.630Z,1.90
2019-04-20T16:55:54.757Z,1.87
2019-04-20T16:58:26.103Z,1.53
2019-04-20T17:00:57.380Z,1.70
2019-04-20T17:03:40.924Z,1.67
2019-04-20T17:06:04.445Z,2.00
2019-04-20T17:08:36.812Z,1.70
2019-04-20T17:11:09.837Z,1.70
2019-04-20T17:13:49.027Z,1.70
2019-04-20T17:16:15.483Z,1.63
2019-04-20T17:18:51.978Z,1.45
2019-04-20T17:21:27.197Z,1.72
2019-04-20T17:23:57.523Z,1.60
2019-04-20T17:26:39.125Z,1.60
2019-04-20T17:29:15.904Z,1.50
2019-04-20T17:32:13.694Z,1.70
2019-04-20T17:35:00.150Z,1.87
2019-04-20T17:37:20.494Z,1.72
2019-04-20T17:40:17.150Z,1.80
2019-04-20T17:42:43.918Z,1.60
2019-04-20T17:45:04.844Z,1.50
2019-04-20T17:47:51.210Z,1.50
2019-04-20T17:50:25.501Z,1.73
2019-04-20T17:52:53.875Z,1.57
2019-04-20T17:55:24.311Z,1.80
2019-04-20T17:57:49.101Z,1.80
2019-04-20T18:00:39.630Z,1.93
2019-04-20T18:03:30.293Z,1.90
2019-04-20T18:06:04.684Z,1.80
2019-04-20T18:08:38.247Z,1.90
2019-04-20T18:10:58.343Z,1.77
2019-04-20T18:13:27.591Z,1.65
2019-04-20T18:16:23.569Z,1.83
2019-04-20T18:19:00.274Z,1.80
2019-04-20T18:21:41.094Z,1.52
2019-04-20T18:24:24.190Z,1.72
2019-04-20T18:27:05.612Z,1.60
2019-04-20T18:29:37.316Z,2.40
2019-04-20T18:32:11.278Z,2.10
2019-04-20T18:34:54.206Z,2.00
2019-04-20T18:37:23.939Z,2.03
2019-04-20T18:40:02.420Z,2.13
2019-04-20T18:42:34.932Z,1.90
2019-04-20T18:45:21.875Z,1.73
2019-04-20T18:47:53.964Z,2.00
2019-04-20T18:50:19.471Z,2.37
2019-04-20T18:52:42.911Z,2.60
2019-04-20T18:55:22.258Z,3.00
2019-04-20T18:57:48.927Z,2.77
2019-04-20T19:00:29.717Z,2.43
2019-04-20T19:03:01.381Z,2.20
2019-04-20T19:05:29.635Z,2.20
2019-04-20T19:08:05.244Z,3.43
2019-04-20T19:10:36.855Z,4.73
2019-04-20T19:13:22.443Z,3.20
2019-04-20T19:16:15.369Z,2.60
2019-04-20T19:19:13.450Z,2.23
2019-04-20T19:21:37.404Z,2.20
2019-04-20T19:24:13.197Z,2.47
2019-04-20T19:26:44.992Z,2.10
2019-04-20T19:29:26.037Z,2.07
2019-04-20T19:32:07.365Z,2.43
2019-04-20T19:34:36.589Z,4.47
2019-04-20T19:37:05.053Z,3.97
2019-04-20T19:39:44.895Z,4.90
2019-04-20T19:42:18.121Z,4.20
2019-04-20T19:44:51.613Z,3.10
2019-04-20T19:47:31.194Z,2.90
2019-04-20T19:49:51.563Z,2.80
2019-04-20T19:52:58.566Z,2.90
2019-04-20T19:55:06.694Z,2.87
2019-04-20T19:57:39.826Z,2.85
2019-04-20T19:59:57.661Z,3.00
2019-04-20T20:02:27.984Z,7.70
2019-04-20T20:05:06.314Z,5.27
2019-04-20T20:07:38.880Z,4.40
2019-04-20T20:10:09.120Z,3.57
2019-04-20T20:12:48.382Z,5.80
2019-04-20T20:15:24.305Z,4.73
2019-04-20T20:18:11.228Z,6.10
2019-04-20T20:20:41.470Z,4.97
2019-04-20T20:23:00.106Z,3.87
2019-04-20T20:25:35.656Z,3.83
2019-04-20T20:28:15.881Z,4.80
2019-04-20T20:30:49.662Z,4.60
2019-04-20T20:33:27.888Z,3.30
2019-04-20T20:35:52.982Z,3.73
2019-04-20T20:38:25.812Z,4.37
2019-04-20T20:40:59.637Z,11.93
2019-04-20T20:43:42.438Z,11.88
2019-04-20T20:46:10.798Z,9.40
2019-04-20T20:48:45.550Z,6.70
2019-04-20T20:51:32.435Z,4.20
2019-04-20T20:53:50.980Z,4.50
2019-04-20T20:56:21.099Z,4.47
2019-04-20T20:58:57.395Z,4.40
2019-04-20T21:01:23.769Z,4.93
2019-04-20T21:03:54.506Z,4.92
2019-04-20T21:06:26.610Z,5.07
2019-04-20T21:09:01.453Z,5.37
2019-04-20T21:11:35.679Z,5.67
2019-04-20T21:14:04.937Z,5.67
2019-04-20T21:16:42.610Z,5.58
2019-04-20T21:19:23.480Z,5.40
2019-04-20T21:21:50.475Z,5.27
2019-04-20T21:24:22.074Z,5.40
2019-04-20T21:26:53.891Z,5.73
2019-04-20T21:29:29.947Z,5.50
2019-04-20T21:32:05.173Z,6.10
2019-04-20T21:34:33.176Z,5.60
2019-04-20T21:37:10.705Z,6.17
2019-04-20T21:39:46.466Z,5.90
2019-04-20T21:42:18.028Z,6.67
2019-04-20T21:44:50.080Z,6.57
2019-04-20T21:47:25.900Z,6.80
2019-04-20T21:50:05.847Z,7.13
2019-04-20T21:52:37.309Z,6.90
2019-04-20T21:55:00.975Z,7.63
2019-04-20T21:57:37.368Z,12.00
2019-04-20T22:00:17.873Z,14.13
2019-04-20T22:02:48.375Z,11.37
2019-04-20T22:05:13.833Z,9.70
2019-04-20T22:07:46.397Z,8.90
2019-04-20T22:10:24.207Z,8.15
2019-04-20T22:12:56.451Z,7.80
2019-04-20T22:15:32.963Z,7.03
2019-04-20T22:18:09.140Z,7.40
2019-04-20T22:20:48.441Z,6.80
2019-04-20T22:23:22.833Z,6.73
2019-04-20T22:25:56.721Z,6.87
2019-04-20T22:28:16.002Z,7.40
2019-04-20T22:30:48.411Z,6.90
2019-04-20T22:33:30.984Z,6.80
2019-04-20T22:36:02.186Z,6.47
2019-04-20T22:39:07.405Z,6.12
2019-04-20T22:41:52.343Z,5.15
2019-04-20T22:44:22.453Z,5.07
2019-04-20T22:46:54.293Z,6.10
2019-04-20T22:49:41.367Z,6.80
2019-04-20T22:52:13.186Z,6.17
2019-04-20T22:54:49.409Z,6.20
2019-04-20T22:57:22.651Z,5.97
2019-04-20T22:59:52.375Z,5.77
2019-04-20T23:02:13.486Z,4.97
2019-04-20T23:04:46.638Z,4.50
2019-04-20T23:07:18.827Z,4.20
2019-04-20T23:09:54.538Z,4.37
2019-04-20T23:12:25.691Z,4.37
2019-04-20T23:14:58.535Z,3.70
2019-04-20T23:17:37.258Z,4.03
2019-04-20T23:20:03.734Z,4.00
2019-04-20T23:22:40.934Z,4.10
2019-04-20T23:25:09.386Z,3.60
2019-04-20T23:27:43.823Z,3.83
2019-04-20T23:30:23.544Z,3.47
2019-04-20T23:32:49.777Z,4.00
2019-04-20T23:35:24.796Z,5.12
2019-04-20T23:38:01.568Z,4.83
2019-04-20T23:40:29.793Z,4.00
2019-04-20T23:43:16.452Z,4.17
2019-04-20T23:45:59.204Z,4.30
2019-04-20T23:48:58.428Z,3.90
2019-04-20T23:51:50.963Z,4.37
2019-04-20T23:54:12.342Z,3.97
2019-04-20T23:56:37.585Z,4.40
2019-04-20T23:59:10.563Z,4.43
